Time;durP1;ratioP1;P1;durP2;ratioP2;P2;SDS_P1;SDS_P2;PMS_P1;PMS_P2;Temp;Humidity;BMP_temperature;BMP_pressure;BME280_temperature;BME280_humidity;BME280_pressure;Samples;Min_cycle;Max_cycle;Signal;HPM_P1;HPM_P2
2023/09/15 00:02:01;;;;;;;4.07;3.10;;;;;;;;;;5010079;28;20550;-55
2023/09/15 00:04:28;;;;;;;6.13;3.60;;;;;;;;;;5010162;28;20497;-56
2023/09/15 00:06:55;;;;;;;3.40;2.70;;;;;;;;;;5009861;28;20447;-55
2023/09/15 00:09:23;;;;;;;4.77;3.27;;;;;;;;;;5010195;28;20941;-55
2023/09/15 00:11:51;;;;;;;4.70;3.27;;;;;;;;;;5009609;28;20467;-56
2023/09/15 00:14:19;;;;;;;7.30;3.60;;;;;;;;;;5010396;28;20439;-55
2023/09/15 00:16:47;;;;;;;4.00;3.00;;;;;;;;;;5009915;28;20443;-55
2023/09/15 00:19:16;;;;;;;3.60;3.10;;;;;;;;;;5010071;28;20458;-57
2023/09/15 00:21:44;;;;;;;3.90;2.97;;;;;;;;;;5009785;28;20525;-56
2023/09/15 00:24:11;;;;;;;5.40;2.90;;;;;;;;;;5010418;28;20487;-57
2023/09/15 00:26:38;;;;;;;3.43;2.87;;;;;;;;;;5013058;28;20482;-55
2023/09/15 00:29:07;;;;;;;3.43;2.87;;;;;;;;;;5013527;28;20457;-55
2023/09/15 00:31:35;;;;;;;3.53;2.70;;;;;;;;;;5013528;28;20455;-55
2023/09/15 00:34:02;;;;;;;3.97;3.10;;;;;;;;;;5013480;28;20474;-55
2023/09/15 00:36:30;;;;;;;4.27;2.90;;;;;;;;;;5013322;28;20486;-55
2023/09/15 00:38:58;;;;;;;3.40;2.90;;;;;;;;;;5013189;28;20493;-55
2023/09/15 00:41:26;;;;;;;4.30;2.83;;;;;;;;;;5013355;28;20483;-55
2023/09/15 00:43:53;;;;;;;4.40;3.43;;;;;;;;;;5013472;28;20490;-55
2023/09/15 00:46:20;;;;;;;3.60;3.23;;;;;;;;;;5013205;28;20878;-55
2023/09/15 00:48:48;;;;;;;4.00;3.17;;;;;;;;;;5013046;28;20481;-56
2023/09/15 00:51:16;;;;;;;5.17;4.40;;;;;;;;;;5013102;28;20513;-56
2023/09/15 00:53:45;;;;;;;4.43;2.80;;;;;;;;;;5013112;28;20470;-55
2023/09/15 00:56:13;;;;;;;4.97;3.57;;;;;;;;;;5012846;28;20447;-56
2023/09/15 00:58:41;;;;;;;4.90;3.80;;;;;;;;;;5013052;28;20455;-55
2023/09/15 01:01:09;;;;;;;6.23;2.87;;;;;;;;;;5012849;28;20941;-56
2023/09/15 01:03:37;;;;;;;3.30;2.73;;;;;;;;;;5012901;28;20463;-55
2023/09/15 01:06:06;;;;;;;9.80;2.83;;;;;;;;;;5013173;28;20948;-55
2023/09/15 01:08:35;;;;;;;3.50;2.90;;;;;;;;;;5012792;28;20453;-56
2023/09/15 01:11:04;;;;;;;3.93;2.73;;;;;;;;;;5012093;28;21018;-56
2023/09/15 01:13:32;;;;;;;3.83;3.03;;;;;;;;;;5012654;28;20550;-55
2023/09/15 01:16:03;;;;;;;4.27;3.23;;;;;;;;;;5012573;28;20914;-55
2023/09/15 01:18:33;;;;;;;4.23;3.30;;;;;;;;;;5012791;28;20443;-56
2023/09/15 01:21:15;;;;;;;3.60;2.67;;;;;;;;;;5012687;28;20475;-57
2023/09/15 01:23:46;;;;;;;4.53;3.13;;;;;;;;;;5009544;28;20532;-55
2023/09/15 01:26:31;;;;;;;3.70;2.90;;;;;;;;;;5012343;28;20490;-56
2023/09/15 01:29:17;;;;;;;4.43;2.90;;;;;;;;;;5011586;28;20439;-55
2023/09/15 01:31:47;;;;;;;3.30;2.70;;;;;;;;;;5011785;28;20977;-55
2023/09/15 01:34:16;;;;;;;4.53;3.30;;;;;;;;;;5012462;28;20462;-55
2023/09/15 01:36:44;;;;;;;3.47;2.50;;;;;;;;;;5011138;28;20453;-55
2023/09/15 01:39:12;;;;;;;4.73;3.50;;;;;;;;;;5012457;28;20447;-55
2023/09/15 01:41:39;;;;;;;5.40;3.33;;;;;;;;;;5012025;28;20466;-55
2023/09/15 01:44:06;;;;;;;3.67;3.00;;;;;;;;;;5012561;28;20483;-56
2023/09/15 01:46:34;;;;;;;4.07;3.13;;;;;;;;;;5012038;28;20540;-55
2023/09/15 01:49:03;;;;;;;5.17;3.30;;;;;;;;;;5012030;28;20770;-55
2023/09/15 01:51:30;;;;;;;6.43;3.37;;;;;;;;;;5011882;28;20447;-56
2023/09/15 01:53:57;;;;;;;3.97;3.40;;;;;;;;;;5012080;28;20447;-56
2023/09/15 01:56:28;;;;;;;3.70;2.70;;;;;;;;;;5011811;28;20447;-55
2023/09/15 01:58:55;;;;;;;6.07;3.47;;;;;;;;;;5011627;28;20871;-57
2023/09/15 02:01:23;;;;;;;4.00;2.90;;;;;;;;;;5011898;28;20443;-56
2023/09/15 02:03:50;;;;;;;4.83;3.43;;;;;;;;;;5011950;28;20447;-55
2023/09/15 02:06:19;;;;;;;4.63;2.70;;;;;;;;;;5011520;28;20490;-55
2023/09/15 02:08:46;;;;;;;4.27;3.70;;;;;;;;;;5011248;28;20467;-55
2023/09/15 02:11:13;;;;;;;3.73;3.00;;;;;;;;;;5012086;28;20505;-55
2023/09/15 02:13:41;;;;;;;4.60;3.03;;;;;;;;;;5011437;28;20913;-55
2023/09/15 02:16:08;;;;;;;5.17;2.80;;;;;;;;;;5011791;28;20495;-55
2023/09/15 02:18:36;;;;;;;4.83;3.20;;;;;;;;;;5011769;28;20474;-56
2023/09/15 02:21:03;;;;;;;3.40;2.70;;;;;;;;;;5011427;28;20530;-55
2023/09/15 02:23:32;;;;;;;4.57;3.07;;;;;;;;;;5011190;28;20534;-55
2023/09/15 02:26:03;;;;;;;3.60;2.97;;;;;;;;;;5011321;28;20518;-55
2023/09/15 02:28:30;;;;;;;4.27;3.20;;;;;;;;;;5011302;28;20447;-55
2023/09/15 02:30:57;;;;;;;5.03;2.87;;;;;;;;;;5011377;28;20478;-56
2023/09/15 02:33:25;;;;;;;6.90;3.17;;;;;;;;;;5011243;28;20463;-55
2023/09/15 02:35:52;;;;;;;6.40;3.57;;;;;;;;;;5011220;28;20787;-55
2023/09/15 02:38:20;;;;;;;4.33;3.60;;;;;;;;;;5011112;28;20447;-55
2023/09/15 02:40:48;;;;;;;4.07;3.37;;;;;;;;;;5011091;28;20938;-55
2023/09/15 02:43:16;;;;;;;4.70;2.77;;;;;;;;;;5011383;28;20491;-56
2023/09/15 02:45:43;;;;;;;3.70;2.77;;;;;;;;;;5011042;28;20850;-57
2023/09/15 02:48:10;;;;;;;4.60;3.30;;;;;;;;;;5010639;28;20448;-55
2023/09/15 02:50:42;;;;;;;4.37;3.00;;;;;;;;;;5010947;28;20479;-55
2023/09/15 02:53:09;;;;;;;6.87;2.97;;;;;;;;;;5011093;28;20904;-55
2023/09/15 02:55:37;;;;;;;3.77;3.20;;;;;;;;;;5010954;28;20467;-56
2023/09/15 02:58:06;;;;;;;3.23;2.70;;;;;;;;;;5010659;28;20494;-55
2023/09/15 03:00:33;;;;;;;8.47;3.70;;;;;;;;;;5010552;28;20945;-56
2023/09/15 03:03:01;;;;;;;4.33;3.07;;;;;;;;;;5009051;28;20495;-55
2023/09/15 03:05:28;;;;;;;4.30;3.20;;;;;;;;;;5009668;28;20483;-57
2023/09/15 03:07:55;;;;;;;4.83;3.80;;;;;;;;;;5009037;28;20478;-55
2023/09/15 03:10:22;;;;;;;3.80;3.17;;;;;;;;;;5009723;28;20518;-55
2023/09/15 03:12:51;;;;;;;4.43;2.70;;;;;;;;;;5069437;23;20501;-58
2023/09/15 03:15:21;;;;;;;4.20;3.10;;;;;;;;;;5028978;28;20496;-57
2023/09/15 03:17:51;;;;;;;4.07;3.27;;;;;;;;;;5029544;28;20442;-58
2023/09/15 03:20:19;;;;;;;2.93;2.60;;;;;;;;;;5030057;28;20438;-58
2023/09/15 03:22:48;;;;;;;3.47;2.90;;;;;;;;;;5029867;28;20473;-58
2023/09/15 03:25:15;;;;;;;3.83;2.80;;;;;;;;;;5030343;28;20569;-57
2023/09/15 03:27:43;;;;;;;4.10;2.80;;;;;;;;;;5029649;28;20936;-56
2023/09/15 03:30:11;;;;;;;4.30;3.30;;;;;;;;;;5029920;28;20477;-56
2023/09/15 03:32:39;;;;;;;6.43;3.17;;;;;;;;;;5029784;28;20527;-56
2023/09/15 03:35:07;;;;;;;3.57;2.90;;;;;;;;;;5029961;28;20500;-56
2023/09/15 03:37:35;;;;;;;4.07;3.67;;;;;;;;;;5030102;28;20468;-57
2023/09/15 03:40:04;;;;;;;3.63;3.00;;;;;;;;;;5030372;28;20496;-56
2023/09/15 03:42:32;;;;;;;4.20;3.00;;;;;;;;;;5030076;28;20549;-56
2023/09/15 03:44:59;;;;;;;4.00;2.87;;;;;;;;;;5029779;28;21012;-56
2023/09/15 03:47:26;;;;;;;3.07;2.70;;;;;;;;;;5029314;28;20543;-56
2023/09/15 03:49:55;;;;;;;3.30;3.00;;;;;;;;;;5030025;28;20551;-58
2023/09/15 03:52:22;;;;;;;3.13;2.40;;;;;;;;;;5029993;28;20505;-58
2023/09/15 03:54:49;;;;;;;4.90;3.20;;;;;;;;;;5030011;28;20501;-58
2023/09/15 03:57:17;;;;;;;5.97;2.70;;;;;;;;;;5029791;28;20474;-57
2023/09/15 03:59:44;;;;;;;3.87;2.83;;;;;;;;;;5030820;28;20482;-56
2023/09/15 04:02:11;;;;;;;4.33;2.73;;;;;;;;;;5033292;28;20470;-56
2023/09/15 04:04:39;;;;;;;5.50;3.47;;;;;;;;;;5033632;28;20537;-55
2023/09/15 04:07:07;;;;;;;4.63;3.37;;;;;;;;;;5033731;28;20536;-56
2023/09/15 04:09:35;;;;;;;4.20;2.60;;;;;;;;;;5033407;28;20446;-57
2023/09/15 04:12:04;;;;;;;3.60;2.90;;;;;;;;;;5033653;28;20469;-58
2023/09/15 04:14:34;;;;;;;3.40;2.83;;;;;;;;;;5033581;28;20470;-57
2023/09/15 04:17:03;;;;;;;3.60;2.70;;;;;;;;;;5033223;28;21742;-57
2023/09/15 04:19:31;;;;;;;4.70;3.10;;;;;;;;;;5033275;28;20951;-58
2023/09/15 04:21:58;;;;;;;3.60;3.30;;;;;;;;;;5033581;28;20939;-56
2023/09/15 04:24:27;;;;;;;4.67;3.20;;;;;;;;;;5033383;28;20533;-57
2023/09/15 04:26:54;;;;;;;3.77;3.37;;;;;;;;;;5032746;28;20494;-58
2023/09/15 04:29:21;;;;;;;4.40;3.10;;;;;;;;;;5033226;28;20477;-58
2023/09/15 04:31:49;;;;;;;3.30;2.50;;;;;;;;;;5033080;28;20975;-56
2023/09/15 04:34:16;;;;;;;3.40;2.40;;;;;;;;;;5033213;28;20498;-57
2023/09/15 04:36:44;;;;;;;4.23;3.20;;;;;;;;;;5031390;28;20604;-57
2023/09/15 04:39:13;;;;;;;3.60;2.93;;;;;;;;;;5032088;28;20749;-57
2023/09/15 04:41:42;;;;;;;4.20;2.73;;;;;;;;;;5031604;28;20505;-58
2023/09/15 04:44:10;;;;;;;3.40;2.43;;;;;;;;;;5031684;28;21012;-58
2023/09/15 04:46:37;;;;;;;3.80;3.00;;;;;;;;;;5031428;28;20488;-59
2023/09/15 04:49:04;;;;;;;3.87;2.53;;;;;;;;;;5031390;28;20514;-58
2023/09/15 04:51:32;;;;;;;3.70;2.83;;;;;;;;;;5031906;28;20442;-57
2023/09/15 04:53:59;;;;;;;3.90;3.43;;;;;;;;;;5032723;28;20520;-59
2023/09/15 04:56:26;;;;;;;4.07;3.07;;;;;;;;;;5032668;28;20438;-59
2023/09/15 04:58:55;;;;;;;4.63;2.80;;;;;;;;;;5032733;28;20532;-58
2023/09/15 05:01:23;;;;;;;4.70;2.73;;;;;;;;;;5032015;28;20444;-59
2023/09/15 05:03:50;;;;;;;4.80;2.63;;;;;;;;;;5030933;28;20476;-58
2023/09/15 05:06:17;;;;;;;3.67;2.93;;;;;;;;;;5032686;28;20514;-57
2023/09/15 05:08:44;;;;;;;4.13;2.50;;;;;;;;;;5031735;28;20790;-57
2023/09/15 05:11:12;;;;;;;3.40;2.60;;;;;;;;;;5031303;28;20450;-57
2023/09/15 05:13:39;;;;;;;2.80;2.30;;;;;;;;;;5032112;28;20527;-58
2023/09/15 05:16:08;;;;;;;4.10;3.00;;;;;;;;;;5032443;28;20446;-56
2023/09/15 05:18:35;;;;;;;3.50;2.57;;;;;;;;;;5031850;28;20815;-57
2023/09/15 05:21:03;;;;;;;3.17;2.07;;;;;;;;;;5031757;28;20493;-58
2023/09/15 05:23:30;;;;;;;6.33;2.90;;;;;;;;;;5031693;28;20526;-59
2023/09/15 05:25:57;;;;;;;3.03;2.20;;;;;;;;;;5031556;28;20478;-58
2023/09/15 05:28:24;;;;;;;4.57;2.50;;;;;;;;;;5032344;28;20503;-58
2023/09/15 05:30:59;;;;;;;4.93;2.73;;;;;;;;;;5031434;28;20490;-59
2023/09/15 05:33:27;;;;;;;4.10;2.30;;;;;;;;;;5031831;28;20918;-59
2023/09/15 05:35:55;;;;;;;4.53;2.70;;;;;;;;;;5032416;28;20482;-58
2023/09/15 05:38:23;;;;;;;3.40;2.77;;;;;;;;;;5032065;28;20450;-58
2023/09/15 05:40:50;;;;;;;3.30;2.90;;;;;;;;;;5032053;28;20528;-57
2023/09/15 05:43:17;;;;;;;3.50;3.20;;;;;;;;;;5031622;28;20920;-57
2023/09/15 05:45:45;;;;;;;3.57;3.03;;;;;;;;;;5031426;28;20474;-57
2023/09/15 05:48:16;;;;;;;3.10;2.40;;;;;;;;;;5031180;28;20447;-58
2023/09/15 05:50:44;;;;;;;3.47;2.30;;;;;;;;;;5031211;28;20452;-58
2023/09/15 05:53:11;;;;;;;2.83;2.17;;;;;;;;;;5031368;28;20555;-58
2023/09/15 05:55:39;;;;;;;3.47;2.70;;;;;;;;;;5031025;28;20952;-58
2023/09/15 05:58:06;;;;;;;3.17;2.53;;;;;;;;;;5031496;28;20474;-58
2023/09/15 06:00:33;;;;;;;3.63;2.73;;;;;;;;;;5031015;28;20451;-58
2023/09/15 06:03:01;;;;;;;4.57;2.90;;;;;;;;;;5031405;28;20660;-58
2023/09/15 06:05:28;;;;;;;5.70;3.10;;;;;;;;;;5031715;28;20867;-58
2023/09/15 06:07:57;;;;;;;3.63;2.80;;;;;;;;;;5031117;28;20515;-58
2023/09/15 06:10:24;;;;;;;3.97;2.60;;;;;;;;;;5031138;28;20446;-57
2023/09/15 06:12:52;;;;;;;2.80;2.40;;;;;;;;;;5029840;28;20547;-57
2023/09/15 06:15:21;;;;;;;2.87;2.27;;;;;;;;;;5030523;28;20442;-56
2023/09/15 06:17:48;;;;;;;5.07;2.90;;;;;;;;;;5030107;28;20995;-57
2023/09/15 06:20:16;;;;;;;3.17;2.50;;;;;;;;;;5030942;28;20537;-56
2023/09/15 06:22:43;;;;;;;3.87;2.80;;;;;;;;;;5030261;28;20540;-58
2023/09/15 06:25:12;;;;;;;2.50;2.00;;;;;;;;;;5030360;28;20442;-57
2023/09/15 06:27:39;;;;;;;3.13;2.60;;;;;;;;;;5030997;28;20603;-57
2023/09/15 06:30:07;;;;;;;3.37;2.10;;;;;;;;;;5031149;28;20450;-57
2023/09/15 06:32:34;;;;;;;4.13;2.63;;;;;;;;;;5030836;28;20540;-57
2023/09/15 06:35:02;;;;;;;4.40;3.03;;;;;;;;;;5031042;28;20513;-58
2023/09/15 06:37:29;;;;;;;7.43;2.80;;;;;;;;;;5030499;28;20442;-59
2023/09/15 06:39:56;;;;;;;7.17;3.60;;;;;;;;;;5030826;28;20479;-58
2023/09/15 06:42:25;;;;;;;5.10;3.53;;;;;;;;;;5031295;28;20466;-57
2023/09/15 06:44:52;;;;;;;5.10;3.70;;;;;;;;;;5030813;28;20547;-56
2023/09/15 06:47:19;;;;;;;5.27;3.57;;;;;;;;;;5030381;28;20513;-56
2023/09/15 06:49:46;;;;;;;5.43;3.57;;;;;;;;;;5030412;28;20869;-56
2023/09/15 06:52:14;;;;;;;7.00;3.63;;;;;;;;;;5030533;28;20536;-57
2023/09/15 06:54:41;;;;;;;5.10;4.43;;;;;;;;;;5030513;28;20500;-57
2023/09/15 06:57:08;;;;;;;4.90;4.00;;;;;;;;;;5030502;28;20466;-58
2023/09/15 06:59:37;;;;;;;6.23;4.97;;;;;;;;;;5030641;28;20500;-58
2023/09/15 07:02:04;;;;;;;6.07;5.27;;;;;;;;;;5030092;28;20469;-57
2023/09/15 07:04:32;;;;;;;5.93;4.60;;;;;;;;;;5030230;28;20473;-57
2023/09/15 07:06:59;;;;;;;8.90;4.93;;;;;;;;;;5029812;28;21024;-58
2023/09/15 07:09:26;;;;;;;5.60;4.97;;;;;;;;;;5030366;28;20920;-59
2023/09/15 07:11:53;;;;;;;6.60;4.77;;;;;;;;;;5030099;28;20496;-58
2023/09/15 07:14:21;;;;;;;5.43;4.17;;;;;;;;;;5030211;28;20510;-59
2023/09/15 07:16:49;;;;;;;7.80;3.70;;;;;;;;;;5030003;28;20532;-58
2023/09/15 07:19:17;;;;;;;4.23;3.13;;;;;;;;;;5029762;28;20567;-58
2023/09/15 07:21:44;;;;;;;3.60;3.00;;;;;;;;;;5029736;28;20539;-58
2023/09/15 07:24:12;;;;;;;5.77;4.03;;;;;;;;;;5030379;28;20549;-58
2023/09/15 07:26:40;;;;;;;3.23;2.67;;;;;;;;;;5029757;28;20485;-59
2023/09/15 07:29:07;;;;;;;3.97;3.20;;;;;;;;;;5030157;28;20580;-58
2023/09/15 07:31:35;;;;;;;4.33;2.87;;;;;;;;;;5030063;28;20496;-58
2023/09/15 07:34:04;;;;;;;6.17;3.00;;;;;;;;;;5029461;28;20466;-58
2023/09/15 07:36:31;;;;;;;6.03;3.37;;;;;;;;;;5030324;28;20517;-58
2023/09/15 07:38:58;;;;;;;4.90;3.20;;;;;;;;;;5029861;28;20500;-59
2023/09/15 07:41:26;;;;;;;4.30;3.00;;;;;;;;;;5029943;28;20782;-59
2023/09/15 07:43:57;;;;;;;4.30;3.27;;;;;;;;;;5029839;28;20946;-58
2023/09/15 07:46:24;;;;;;;5.40;3.40;;;;;;;;;;5029968;28;20900;-59
2023/09/15 07:48:51;;;;;;;3.67;3.10;;;;;;;;;;5029406;28;20987;-58
2023/09/15 07:51:20;;;;;;;5.60;2.70;;;;;;;;;;5029863;28;20442;-59
2023/09/15 07:53:47;;;;;;;4.43;3.37;;;;;;;;;;5029631;28;20498;-59
2023/09/15 07:56:14;;;;;;;5.10;3.37;;;;;;;;;;5029716;28;20567;-59
2023/09/15 07:58:41;;;;;;;6.20;3.33;;;;;;;;;;5029661;28;20498;-57
2023/09/15 08:01:11;;;;;;;3.57;2.60;;;;;;;;;;5030033;28;20511;-58
2023/09/15 08:03:38;;;;;;;3.23;2.50;;;;;;;;;;5029623;28;20494;-58
2023/09/15 08:06:06;;;;;;;4.73;3.20;;;;;;;;;;5029093;28;20481;-59
2023/09/15 08:08:35;;;;;;;3.90;2.93;;;;;;;;;;5029598;28;20474;-59
2023/09/15 08:11:02;;;;;;;4.20;3.10;;;;;;;;;;5029686;28;21019;-58
2023/09/15 08:13:30;;;;;;;4.00;3.00;;;;;;;;;;5029396;28;20466;-58
2023/09/15 08:15:57;;;;;;;4.30;3.10;;;;;;;;;;5029553;28;20438;-58
2023/09/15 08:18:24;;;;;;;4.47;2.90;;;;;;;;;;5029597;28;20470;-58
2023/09/15 08:20:51;;;;;;;3.57;2.97;;;;;;;;;;5029660;28;20448;-57
2023/09/15 08:23:19;;;;;;;3.40;2.77;;;;;;;;;;5029863;28;20493;-57
2023/09/15 08:25:47;;;;;;;3.27;2.60;;;;;;;;;;5029317;28;20953;-58
2023/09/15 08:28:15;;;;;;;3.90;3.07;;;;;;;;;;5029283;28;20547;-58
2023/09/15 08:30:44;;;;;;;3.57;3.00;;;;;;;;;;5029687;28;20508;-59
2023/09/15 08:33:11;;;;;;;3.30;2.53;;;;;;;;;;5029498;28;20470;-58
2023/09/15 08:35:38;;;;;;;4.03;3.27;;;;;;;;;;5029356;28;20876;-58
2023/09/15 08:38:05;;;;;;;4.50;2.93;;;;;;;;;;5029822;28;20811;-58
2023/09/15 08:40:37;;;;;;;4.10;3.10;;;;;;;;;;5029391;28;20446;-59
2023/09/15 08:43:07;;;;;;;4.40;2.53;;;;;;;;;;5029572;28;20457;-59
2023/09/15 08:45:34;;;;;;;4.30;3.37;;;;;;;;;;5030296;28;20792;-59
2023/09/15 08:48:04;;;;;;;4.43;2.90;;;;;;;;;;5032699;28;20493;-58
2023/09/15 08:50:32;;;;;;;3.17;2.87;;;;;;;;;;5033013;28;20446;-59
2023/09/15 08:53:01;;;;;;;3.80;2.80;;;;;;;;;;5032700;28;20548;-58
2023/09/15 08:55:28;;;;;;;3.40;3.10;;;;;;;;;;5032833;28;20529;-58
2023/09/15 08:57:56;;;;;;;4.40;2.93;;;;;;;;;;5032547;28;20481;-58
2023/09/15 09:00:25;;;;;;;4.10;3.03;;;;;;;;;;5032603;28;20446;-59
2023/09/15 09:02:53;;;;;;;3.43;2.60;;;;;;;;;;5032705;28;20462;-57
2023/09/15 09:05:23;;;;;;;3.30;2.63;;;;;;;;;;5032398;28;20920;-58
2023/09/15 09:07:51;;;;;;;3.23;2.47;;;;;;;;;;5032601;28;20979;-58
2023/09/15 09:10:19;;;;;;;5.40;3.10;;;;;;;;;;5032812;28;20454;-58
2023/09/15 09:12:46;;;;;;;3.93;3.07;;;;;;;;;;5059532;22;20481;-86
2023/09/15 09:15:17;;;;;;;3.23;2.33;;;;;;;;;;5052879;28;20453;-87
2023/09/15 09:17:45;;;;;;;3.57;2.63;;;;;;;;;;5052659;28;20477;-86
2023/09/15 09:20:24;;;;;;;3.90;2.90;;;;;;;;;;5052780;28;20445;-86
2023/09/15 09:22:52;;;;;;;4.63;3.20;;;;;;;;;;5052874;28;20461;-87
2023/09/15 09:25:26;;;;;;;3.13;2.17;;;;;;;;;;5052768;28;20473;-87
2023/09/15 09:27:55;;;;;;;3.33;2.60;;;;;;;;;;5058691;22;20588;-56
2023/09/15 09:30:23;;;;;;;4.07;2.83;;;;;;;;;;5032366;28;20981;-56
2023/09/15 09:32:52;;;;;;;3.17;2.80;;;;;;;;;;5032218;28;20545;-58
2023/09/15 09:35:20;;;;;;;3.30;2.33;;;;;;;;;;5032116;28;20496;-56
2023/09/15 09:37:47;;;;;;;3.23;2.50;;;;;;;;;;5031729;28;20524;-56
2023/09/15 09:40:14;;;;;;;3.00;2.70;;;;;;;;;;5032500;28;20466;-58
2023/09/15 09:42:42;;;;;;;2.93;2.40;;;;;;;;;;5032593;28;20442;-56
2023/09/15 09:45:10;;;;;;;4.40;2.90;;;;;;;;;;5032051;28;20534;-58
2023/09/15 09:47:37;;;;;;;4.13;2.60;;;;;;;;;;5031599;28;20948;-58
2023/09/15 09:50:09;;;;;;;5.47;2.83;;;;;;;;;;5031522;28;20492;-56
2023/09/15 09:52:37;;;;;;;3.20;2.20;;;;;;;;;;5031947;28;20472;-55
2023/09/15 09:55:05;;;;;;;3.30;2.50;;;;;;;;;;5031758;28;21020;-58
2023/09/15 09:57:32;;;;;;;3.43;2.43;;;;;;;;;;5030486;28;20992;-57
2023/09/15 10:00:03;;;;;;;2.97;2.60;;;;;;;;;;5031608;28;20889;-56
2023/09/15 10:02:31;;;;;;;3.10;2.10;;;;;;;;;;5031499;28;20450;-57
2023/09/15 10:04:58;;;;;;;4.10;2.07;;;;;;;;;;5031845;28;20493;-57
2023/09/15 10:07:27;;;;;;;3.43;2.40;;;;;;;;;;5031463;28;20580;-57
2023/09/15 10:09:54;;;;;;;2.60;2.27;;;;;;;;;;5030836;28;20438;-58
2023/09/15 10:12:23;;;;;;;3.37;2.30;;;;;;;;;;5031184;28;20531;-58
2023/09/15 10:14:50;;;;;;;3.27;2.53;;;;;;;;;;5031094;28;20888;-58
2023/09/15 10:17:19;;;;;;;3.10;2.40;;;;;;;;;;5030639;28;20438;-58
2023/09/15 10:19:46;;;;;;;2.90;2.13;;;;;;;;;;5031122;28;20521;-58
2023/09/15 10:22:14;;;;;;;3.67;2.40;;;;;;;;;;5031072;28;20478;-58
2023/09/15 10:24:47;;;;;;;3.87;2.50;;;;;;;;;;5030890;28;20548;-58
2023/09/15 10:27:14;;;;;;;3.10;2.60;;;;;;;;;;5028676;28;20478;-58
2023/09/15 10:29:45;;;;;;;4.37;2.60;;;;;;;;;;5030603;28;20443;-58
2023/09/15 10:32:17;;;;;;;2.97;2.67;;;;;;;;;;5028878;28;20525;-56
2023/09/15 10:34:45;;;;;;;3.57;3.03;;;;;;;;;;5030646;28;20476;-57
2023/09/15 10:37:12;;;;;;;3.53;2.97;;;;;;;;;;5030522;28;20458;-58
2023/09/15 10:39:40;;;;;;;4.20;2.97;;;;;;;;;;5030144;28;20438;-57
2023/09/15 10:42:10;;;;;;;3.87;2.97;;;;;;;;;;5030359;28;20435;-57
2023/09/15 10:44:38;;;;;;;3.50;3.00;;;;;;;;;;5028334;28;20454;-58
2023/09/15 10:47:15;;;;;;;3.70;3.10;;;;;;;;;;5030204;28;20568;-56
2023/09/15 10:49:49;;;;;;;4.17;2.50;;;;;;;;;;5028652;28;21000;-55
2023/09/15 10:52:17;;;;;;;3.30;2.70;;;;;;;;;;5028348;28;20529;-58
2023/09/15 10:54:45;;;;;;;4.33;3.00;;;;;;;;;;5030326;28;20563;-59
2023/09/15 10:57:14;;;;;;;3.80;2.90;;;;;;;;;;5030499;28;20449;-58
2023/09/15 10:59:41;;;;;;;3.83;2.93;;;;;;;;;;5031140;28;20442;-57
2023/09/15 11:02:10;;;;;;;3.53;3.07;;;;;;;;;;5029839;28;20488;-57
2023/09/15 11:04:38;;;;;;;5.13;2.90;;;;;;;;;;5030361;28;20466;-56
2023/09/15 11:07:07;;;;;;;4.10;2.67;;;;;;;;;;5030037;28;20441;-56
2023/09/15 11:09:35;;;;;;;5.73;2.83;;;;;;;;;;5030049;28;20449;-57
2023/09/15 11:12:03;;;;;;;4.20;3.03;;;;;;;;;;5029568;28;20450;-57
2023/09/15 11:14:32;;;;;;;2.80;2.00;;;;;;;;;;5029430;28;20474;-57
2023/09/15 11:17:00;;;;;;;3.43;2.57;;;;;;;;;;5028981;28;20485;-59
2023/09/15 11:19:30;;;;;;;3.33;2.73;;;;;;;;;;5028986;28;20450;-58
2023/09/15 11:21:58;;;;;;;3.70;3.10;;;;;;;;;;5029283;28;20446;-58
2023/09/15 11:24:25;;;;;;;3.40;2.87;;;;;;;;;;5030191;28;21059;-57
2023/09/15 11:26:53;;;;;;;4.03;3.33;;;;;;;;;;5029860;28;20446;-57
2023/09/15 11:29:25;;;;;;;3.17;2.77;;;;;;;;;;5030385;28;20517;-58
2023/09/15 11:31:54;;;;;;;4.03;3.00;;;;;;;;;;5030211;28;20474;-58
2023/09/15 11:34:22;;;;;;;3.27;2.60;;;;;;;;;;5029946;28;20469;-58
2023/09/15 11:36:49;;;;;;;3.20;2.63;;;;;;;;;;5030081;28;20438;-57
2023/09/15 11:39:17;;;;;;;4.30;3.03;;;;;;;;;;5030366;28;20469;-59
2023/09/15 11:41:53;;;;;;;3.37;2.70;;;;;;;;;;5030128;28;20868;-58
2023/09/15 11:44:21;;;;;;;3.90;3.33;;;;;;;;;;5030046;28;20909;-58
2023/09/15 11:46:48;;;;;;;3.33;2.20;;;;;;;;;;5029603;28;20446;-57
2023/09/15 11:49:18;;;;;;;4.03;2.83;;;;;;;;;;5030047;28;20509;-58
2023/09/15 11:51:46;;;;;;;3.23;2.63;;;;;;;;;;5030240;28;20837;-56
2023/09/15 11:54:13;;;;;;;3.70;3.07;;;;;;;;;;5030101;28;20580;-58
2023/09/15 11:56:41;;;;;;;3.57;2.70;;;;;;;;;;5029706;28;20450;-57
2023/09/15 11:59:08;;;;;;;3.37;2.80;;;;;;;;;;5029713;28;20477;-58
2023/09/15 12:01:36;;;;;;;4.60;3.23;;;;;;;;;;5029776;28;20859;-58
2023/09/15 12:04:04;;;;;;;4.43;3.43;;;;;;;;;;5030121;28;20489;-58
2023/09/15 12:06:33;;;;;;;4.20;2.90;;;;;;;;;;5029809;28;20449;-57
2023/09/15 12:09:00;;;;;;;3.77;3.10;;;;;;;;;;5028674;28;20524;-58
2023/09/15 12:11:28;;;;;;;4.93;3.53;;;;;;;;;;5029781;28;20442;-58
2023/09/15 12:13:56;;;;;;;3.97;2.97;;;;;;;;;;5029692;28;20470;-58
2023/09/15 12:16:27;;;;;;;3.67;3.37;;;;;;;;;;5030027;28;20446;-58
2023/09/15 12:18:55;;;;;;;3.93;2.80;;;;;;;;;;5029859;28;20504;-58
2023/09/15 12:21:24;;;;;;;2.80;2.40;;;;;;;;;;5032225;28;20450;-58
2023/09/15 12:23:55;;;;;;;3.70;2.70;;;;;;;;;;5033390;28;20466;-58
2023/09/15 12:26:24;;;;;;;3.00;2.57;;;;;;;;;;5033540;28;20955;-57
2023/09/15 12:28:53;;;;;;;2.53;1.83;;;;;;;;;;5033154;28;20494;-58
2023/09/15 12:31:21;;;;;;;2.97;2.20;;;;;;;;;;5033511;28;20446;-58
2023/09/15 12:33:48;;;;;;;3.33;2.20;;;;;;;;;;5033178;28;20480;-57
2023/09/15 12:36:16;;;;;;;3.03;2.50;;;;;;;;;;5033326;28;20450;-58
2023/09/15 12:38:44;;;;;;;2.90;2.37;;;;;;;;;;5032980;28;20438;-56
2023/09/15 12:41:13;;;;;;;4.77;2.73;;;;;;;;;;5033613;28;20543;-58
2023/09/15 12:43:41;;;;;;;2.53;1.90;;;;;;;;;;5033062;28;20521;-58
2023/09/15 12:46:08;;;;;;;3.13;2.20;;;;;;;;;;5033502;28;20532;-58
2023/09/15 12:48:35;;;;;;;3.20;2.47;;;;;;;;;;5032885;28;20536;-56
2023/09/15 12:51:04;;;;;;;4.00;3.13;;;;;;;;;;5032989;28;20550;-58
2023/09/15 12:53:31;;;;;;;3.13;2.60;;;;;;;;;;5032812;28;20506;-59
2023/09/15 12:56:00;;;;;;;5.00;3.07;;;;;;;;;;5032825;28;20446;-58
2023/09/15 12:58:28;;;;;;;2.90;2.40;;;;;;;;;;5032579;28;20457;-58
2023/09/15 13:00:56;;;;;;;3.03;2.73;;;;;;;;;;5032720;28;20496;-57
2023/09/15 13:03:23;;;;;;;3.47;3.07;;;;;;;;;;5031596;28;20498;-57
2023/09/15 13:05:50;;;;;;;4.27;2.90;;;;;;;;;;5031375;28;20537;-57
2023/09/15 13:08:17;;;;;;;4.20;2.80;;;;;;;;;;5030518;28;20676;-57
2023/09/15 13:10:45;;;;;;;3.33;2.57;;;;;;;;;;5031483;28;20458;-57
2023/09/15 13:13:12;;;;;;;3.60;2.70;;;;;;;;;;5031555;28;20462;-57
2023/09/15 13:15:41;;;;;;;3.47;3.10;;;;;;;;;;5032743;28;20481;-57
2023/09/15 13:18:08;;;;;;;3.50;2.77;;;;;;;;;;5032293;28;20439;-57
2023/09/15 13:20:35;;;;;;;4.23;3.40;;;;;;;;;;5031743;28;20564;-56
2023/09/15 13:23:02;;;;;;;3.40;3.00;;;;;;;;;;5032323;28;21061;-57
2023/09/15 13:25:30;;;;;;;3.53;2.80;;;;;;;;;;5032410;28;20442;-57
2023/09/15 13:27:57;;;;;;;3.60;2.73;;;;;;;;;;5031466;28;21004;-56
2023/09/15 13:30:25;;;;;;;4.63;3.90;;;;;;;;;;5031862;28;20442;-57
2023/09/15 13:32:53;;;;;;;3.70;3.00;;;;;;;;;;5030043;28;20549;-57
2023/09/15 13:35:21;;;;;;;6.50;2.90;;;;;;;;;;5031033;28;20482;-58
2023/09/15 13:37:48;;;;;;;5.40;2.90;;;;;;;;;;5033766;28;20528;-59
2023/09/15 13:40:15;;;;;;;4.70;3.40;;;;;;;;;;5032097;28;20529;-57
2023/09/15 13:42:43;;;;;;;3.77;2.70;;;;;;;;;;5031797;28;20470;-56
2023/09/15 13:45:12;;;;;;;5.57;3.07;;;;;;;;;;5031840;28;20880;-58
2023/09/15 13:47:39;;;;;;;3.43;2.90;;;;;;;;;;5031378;28;20947;-58
2023/09/15 13:50:10;;;;;;;4.37;3.77;;;;;;;;;;5031946;28;20450;-58
2023/09/15 13:52:37;;;;;;;3.53;3.00;;;;;;;;;;5031666;28;20821;-56
2023/09/15 13:55:05;;;;;;;3.80;2.77;;;;;;;;;;5031643;28;20496;-57
2023/09/15 13:57:33;;;;;;;3.40;2.77;;;;;;;;;;5030812;28;20458;-57
2023/09/15 14:00:00;;;;;;;5.97;3.00;;;;;;;;;;5030384;28;20525;-58
2023/09/15 14:02:27;;;;;;;4.50;2.87;;;;;;;;;;5031106;28;20503;-58
2023/09/15 14:04:56;;;;;;;4.17;2.93;;;;;;;;;;5031161;28;20454;-57
2023/09/15 14:07:24;;;;;;;3.50;2.50;;;;;;;;;;5029844;28;21192;-58
2023/09/15 14:09:52;;;;;;;3.17;2.70;;;;;;;;;;5031034;28;20603;-59
2023/09/15 14:12:19;;;;;;;3.37;3.07;;;;;;;;;;5031801;28;20446;-59
2023/09/15 14:14:47;;;;;;;3.33;3.03;;;;;;;;;;5031077;28;20860;-58
2023/09/15 14:17:14;;;;;;;3.93;2.93;;;;;;;;;;5031043;28;20442;-59
2023/09/15 14:19:41;;;;;;;5.33;3.20;;;;;;;;;;5031625;28;20438;-58
2023/09/15 14:22:08;;;;;;;5.00;3.10;;;;;;;;;;5030021;28;20972;-59
2023/09/15 14:24:37;;;;;;;4.30;2.57;;;;;;;;;;5029864;28;20462;-58
2023/09/15 14:27:04;;;;;;;3.20;2.87;;;;;;;;;;5030860;28;20442;-58
2023/09/15 14:29:32;;;;;;;4.20;3.10;;;;;;;;;;5031016;28;20514;-58
2023/09/15 14:32:01;;;;;;;3.53;2.97;;;;;;;;;;5030838;28;20442;-59
2023/09/15 14:34:28;;;;;;;4.57;3.50;;;;;;;;;;5031629;28;20470;-57
2023/09/15 14:36:55;;;;;;;4.30;2.97;;;;;;;;;;5030845;28;20540;-59
2023/09/15 14:39:22;;;;;;;4.20;3.43;;;;;;;;;;5031160;28;20446;-58
2023/09/15 14:41:51;;;;;;;3.50;3.10;;;;;;;;;;5030887;28;20520;-59
2023/09/15 14:44:19;;;;;;;3.00;2.63;;;;;;;;;;5030536;28;20497;-59
2023/09/15 14:46:46;;;;;;;3.43;2.60;;;;;;;;;;5030750;28;20872;-58
2023/09/15 14:49:14;;;;;;;3.37;2.27;;;;;;;;;;5031011;28;21019;-58